createdAt,value
2023-03-31T00:03:43.759Z,11.40
2023-03-31T00:06:17.992Z,11.40
2023-03-31T00:18:50.854Z,11.40
2023-03-31T00:21:33.696Z,11.40
2023-03-31T00:24:04.370Z,11.30
2023-03-31T00:26:33.518Z,11.40
2023-03-31T00:29:02.388Z,11.40
2023-03-31T00:34:00.927Z,11.40
2023-03-31T00:39:00.715Z,11.50
2023-03-31T00:41:30.252Z,11.50
2023-03-31T00:44:08.400Z,9.40
2023-03-31T00:46:44.877Z,11.50
2023-03-31T00:49:22.889Z,11.50
2023-03-31T00:51:53.914Z,11.60
2023-03-31T00:54:25.950Z,11.50
2023-03-31T00:56:58.254Z,11.60
2023-03-31T00:59:31.914Z,11.60
2023-03-31T01:02:02.727Z,11.60
2023-03-31T01:04:36.893Z,11.60
2023-03-31T01:07:12.440Z,11.60
2023-03-31T01:09:42.074Z,11.60
2023-03-31T01:12:11.680Z,11.70
2023-03-31T01:19:54.532Z,11.80
2023-03-31T01:22:59.486Z,11.90
2023-03-31T01:26:13.803Z,11.80
2023-03-31T01:28:48.115Z,11.80
2023-03-31T01:31:56.391Z,11.80
2023-03-31T01:35:36.809Z,11.80
2023-03-31T01:38:55.107Z,11.70
2023-03-31T01:41:45.874Z,11.70
2023-03-31T01:44:25.035Z,11.70
2023-03-31T01:46:59.184Z,11.70
2023-03-31T01:49:40.334Z,11.70
2023-03-31T01:52:18.432Z,11.70
2023-03-31T01:54:52.059Z,11.70
2023-03-31T01:57:28.100Z,11.70
2023-03-31T02:00:05.819Z,11.80
2023-03-31T02:02:47.525Z,11.80
2023-03-31T02:05:21.379Z,11.80
2023-03-31T02:07:55.812Z,11.90
2023-03-31T02:10:28.405Z,11.90
2023-03-31T02:13:02.958Z,11.90
2023-03-31T02:15:38.153Z,12.00
2023-03-31T02:18:12.186Z,12.00
2023-03-31T02:20:46.160Z,12.00
2023-03-31T02:23:17.797Z,12.00
2023-03-31T02:25:51.670Z,12.00
2023-03-31T02:28:24.510Z,12.00
2023-03-31T02:31:06.593Z,12.00
2023-03-31T02:38:40.632Z,11.80
2023-03-31T02:41:11.147Z,11.70
2023-03-31T02:43:41.047Z,12.10
2023-03-31T02:48:41.322Z,11.80
2023-03-31T02:52:06.410Z,11.80
2023-03-31T02:55:20.343Z,11.90
2023-03-31T02:58:23.800Z,11.90
2023-03-31T03:01:14.579Z,11.90
2023-03-31T03:03:58.963Z,11.90
2023-03-31T03:06:43.508Z,11.90
2023-03-31T03:09:36.951Z,11.80
2023-03-31T03:12:14.959Z,11.80
2023-03-31T03:14:52.333Z,11.90
2023-03-31T03:17:27.049Z,11.80
2023-03-31T03:19:57.787Z,11.80
2023-03-31T03:22:26.221Z,11.80
2023-03-31T03:24:55.397Z,11.80
2023-03-31T03:29:52.946Z,11.80
2023-03-31T03:32:22.514Z,11.80
2023-03-31T03:39:47.816Z,11.70
2023-03-31T03:49:43.457Z,11.70
2023-03-31T03:54:40.129Z,11.70
2023-03-31T03:59:37.036Z,11.70
2023-03-31T04:07:03.938Z,11.70
2023-03-31T04:09:32.391Z,11.60
2023-03-31T04:24:33.138Z,11.60
2023-03-31T04:27:02.961Z,11.60
2023-03-31T04:39:34.804Z,11.70
2023-03-31T04:42:03.424Z,11.70
2023-03-31T04:49:33.557Z,11.50
2023-03-31T04:54:30.701Z,11.10
2023-03-31T04:57:00.353Z,11.00
2023-03-31T05:01:57.078Z,10.80
2023-03-31T05:14:21.861Z,10.40
2023-03-31T05:24:16.008Z,10.30
2023-03-31T05:26:48.417Z,10.30
2023-03-31T05:31:47.688Z,10.20
2023-03-31T05:34:16.939Z,10.10
2023-03-31T05:49:11.401Z,9.80
2023-03-31T06:06:37.093Z,9.80
2023-03-31T06:11:34.927Z,9.70
2023-03-31T06:16:31.753Z,9.60
2023-03-31T06:24:00.278Z,9.60
2023-03-31T06:28:57.208Z,9.60
2023-03-31T06:31:26.856Z,9.60
2023-03-31T06:36:24.424Z,9.60
2023-03-31T06:41:22.949Z,9.60
2023-03-31T06:43:51.702Z,9.60
2023-03-31T06:51:17.653Z,9.60
2023-03-31T06:58:44.284Z,9.80
2023-03-31T07:08:38.296Z,10.00
2023-03-31T07:13:35.795Z,10.20
2023-03-31T07:16:07.252Z,10.20
2023-03-31T07:18:36.600Z,10.30
2023-03-31T07:21:09.635Z,10.30
2023-03-31T07:23:38.678Z,10.30
2023-03-31T07:26:07.396Z,10.30
2023-03-31T07:31:13.324Z,10.30
2023-03-31T07:36:13.755Z,10.20
2023-03-31T07:38:45.689Z,10.20
2023-03-31T07:41:15.598Z,10.10
2023-03-31T07:46:20.418Z,10.00
2023-03-31T07:51:20.531Z,9.90
2023-03-31T07:53:52.099Z,9.90
2023-03-31T07:56:21.768Z,9.80
2023-03-31T08:01:25.770Z,9.90
2023-03-31T08:03:54.515Z,9.90
2023-03-31T08:06:26.369Z,9.90
2023-03-31T08:16:22.971Z,9.90
2023-03-31T08:23:55.828Z,10.00
2023-03-31T08:26:25.552Z,10.00
2023-03-31T08:28:54.312Z,10.00
2023-03-31T08:31:27.470Z,10.00
2023-03-31T08:41:43.810Z,10.10
2023-03-31T08:44:22.734Z,10.00
2023-03-31T08:46:55.916Z,10.00
2023-03-31T08:49:26.729Z,10.00
2023-03-31T08:52:00.330Z,10.00
2023-03-31T08:54:34.452Z,10.00
2023-03-31T08:57:04.937Z,10.20
2023-03-31T08:59:35.531Z,10.50
2023-03-31T09:02:18.712Z,10.60
2023-03-31T09:05:53.105Z,10.70
2023-03-31T09:08:38.046Z,10.70
2023-03-31T09:11:20.227Z,10.80
2023-03-31T09:14:27.892Z,10.90
2023-03-31T09:17:14.098Z,10.90
2023-03-31T09:19:48.077Z,10.90
2023-03-31T09:22:21.238Z,10.80
2023-03-31T09:24:57.105Z,10.90
2023-03-31T09:27:28.741Z,10.80
2023-03-31T09:30:02.497Z,10.80
2023-03-31T09:32:33.656Z,10.80
2023-03-31T09:35:15.286Z,10.70
2023-03-31T09:40:19.964Z,10.20
2023-03-31T09:42:55.170Z,9.80
2023-03-31T09:45:23.797Z,9.50
2023-03-31T09:47:56.306Z,9.30
2023-03-31T09:50:26.587Z,9.10
2023-03-31T09:52:58.987Z,8.90
2023-03-31T09:55:40.397Z,8.80
2023-03-31T09:58:13.624Z,8.80
2023-03-31T10:00:43.721Z,8.80
2023-03-31T10:03:15.182Z,8.90
2023-03-31T10:05:52.374Z,9.00
2023-03-31T10:08:26.263Z,9.10
2023-03-31T10:10:56.885Z,9.30
2023-03-31T10:13:29.209Z,9.50
2023-03-31T10:16:06.460Z,9.60
2023-03-31T10:18:38.838Z,9.70
2023-03-31T10:21:16.775Z,10.10
2023-03-31T10:23:48.992Z,10.40
2023-03-31T10:26:21.710Z,10.70
2023-03-31T10:28:53.031Z,10.90
2023-03-31T10:31:25.799Z,11.00
2023-03-31T10:33:56.108Z,11.20
2023-03-31T10:36:28.284Z,11.40
2023-03-31T10:41:29.391Z,11.60
2023-03-31T10:43:59.281Z,11.60
2023-03-31T10:46:44.004Z,11.60
2023-03-31T10:49:27.059Z,11.50
2023-03-31T10:51:57.832Z,11.50
2023-03-31T10:56:58.797Z,11.80
2023-03-31T10:59:44.665Z,11.90
2023-03-31T11:02:42.367Z,12.00
2023-03-31T11:05:22.374Z,12.20
2023-03-31T11:08:11.665Z,12.30
2023-03-31T11:10:58.688Z,12.40
2023-03-31T11:13:37.287Z,12.50
2023-03-31T11:16:19.649Z,12.50
2023-03-31T11:19:05.427Z,12.60
2023-03-31T11:21:47.283Z,12.60
2023-03-31T11:24:32.857Z,12.70
2023-03-31T11:27:19.031Z,12.70
2023-03-31T11:29:55.396Z,12.90
2023-03-31T11:32:54.803Z,12.90
2023-03-31T11:35:48.026Z,13.00
2023-03-31T11:38:35.743Z,13.10
2023-03-31T11:41:08.003Z,13.20
2023-03-31T11:43:43.298Z,13.40
2023-03-31T11:46:16.317Z,13.50
2023-03-31T11:48:55.167Z,13.60
2023-03-31T11:51:28.590Z,13.80
2023-03-31T11:54:04.114Z,13.90
2023-03-31T11:56:39.742Z,14.00
2023-03-31T11:59:13.557Z,14.00
2023-03-31T12:01:48.419Z,14.00
2023-03-31T12:04:25.830Z,14.00
2023-03-31T12:07:00.731Z,13.80
2023-03-31T12:09:44.343Z,13.80
2023-03-31T12:12:20.902Z,13.70
2023-03-31T12:14:55.568Z,13.70
2023-03-31T12:17:29.324Z,13.80
2023-03-31T12:20:02.166Z,14.00
2023-03-31T12:22:35.092Z,14.30
2023-03-31T12:25:06.399Z,14.40
2023-03-31T12:27:41.695Z,14.50
2023-03-31T12:30:15.885Z,11.80
2023-03-31T12:32:49.132Z,14.80
2023-03-31T12:35:23.719Z,15.00
2023-03-31T12:38:24.117Z,15.10
2023-03-31T12:41:07.528Z,15.00
2023-03-31T12:43:58.876Z,14.90
2023-03-31T12:46:59.201Z,15.00
2023-03-31T12:49:58.466Z,14.90
2023-03-31T12:52:37.329Z,14.90
2023-03-31T12:55:34.874Z,14.80
2023-03-31T12:58:44.147Z,14.70
2023-03-31T13:01:16.642Z,14.80
2023-03-31T13:03:55.202Z,14.70
2023-03-31T13:06:55.663Z,14.70
2023-03-31T13:09:52.111Z,14.60
2023-03-31T13:12:25.539Z,14.60
2023-03-31T13:14:59.996Z,14.50
2023-03-31T13:17:35.621Z,14.30
2023-03-31T13:20:38.197Z,14.30
2023-03-31T13:23:20.251Z,14.10
2023-03-31T13:25:51.605Z,13.90
2023-03-31T13:28:42.234Z,13.90
2023-03-31T13:31:14.022Z,13.80
2023-03-31T13:33:48.225Z,13.70
2023-03-31T13:36:48.423Z,13.60
2023-03-31T13:40:01.895Z,13.40
2023-03-31T13:43:09.384Z,13.20
2023-03-31T13:45:58.281Z,13.20
2023-03-31T13:48:43.903Z,13.30
2023-03-31T13:51:30.818Z,13.40
2023-03-31T13:54:20.604Z,13.50
2023-03-31T13:57:14.968Z,13.60
2023-03-31T14:00:12.599Z,13.70
2023-03-31T14:02:59.701Z,13.80
2023-03-31T14:05:34.802Z,13.80
2023-03-31T14:08:11.932Z,13.90
2023-03-31T14:10:42.935Z,13.90
2023-03-31T14:13:17.030Z,13.90
2023-03-31T14:15:50.542Z,14.00
2023-03-31T14:18:26.690Z,14.10
2023-03-31T14:21:17.696Z,14.20
2023-03-31T14:23:58.792Z,14.30
2023-03-31T14:26:48.909Z,14.50
2023-03-31T14:29:25.527Z,14.80
2023-03-31T14:32:04.203Z,15.00
2023-03-31T14:34:59.858Z,15.10
2023-03-31T14:37:30.852Z,15.10
2023-03-31T14:40:00.229Z,14.90
2023-03-31T14:42:38.009Z,14.80
2023-03-31T14:45:17.023Z,14.70
2023-03-31T14:47:56.789Z,14.50
2023-03-31T14:50:32.592Z,14.30
2023-03-31T14:53:02.390Z,14.20
2023-03-31T14:55:54.403Z,14.00
2023-03-31T14:58:28.467Z,13.70
2023-03-31T15:00:57.053Z,13.00
2023-03-31T15:03:27.631Z,12.10
2023-03-31T15:06:00.518Z,11.20
2023-03-31T15:08:32.371Z,10.80
2023-03-31T15:11:12.936Z,10.30
2023-03-31T15:13:56.602Z,9.90
2023-03-31T15:16:42.300Z,9.60
2023-03-31T15:19:16.937Z,9.30
2023-03-31T15:21:46.983Z,9.30
2023-03-31T15:24:16.948Z,9.30
2023-03-31T15:26:51.323Z,9.40
2023-03-31T15:29:24.727Z,9.50
2023-03-31T15:34:31.049Z,9.90
2023-03-31T15:37:00.014Z,10.10
2023-03-31T15:39:32.994Z,10.20
2023-03-31T15:42:04.436Z,10.30
2023-03-31T15:44:40.168Z,10.60
2023-03-31T15:47:17.206Z,10.50
2023-03-31T15:49:55.352Z,10.60
2023-03-31T15:52:33.117Z,10.70
2023-03-31T15:55:23.242Z,10.80
2023-03-31T15:57:52.744Z,11.00
2023-03-31T16:00:45.395Z,11.10
2023-03-31T16:03:19.173Z,11.20
2023-03-31T16:05:55.876Z,11.30
2023-03-31T16:08:29.578Z,11.40
2023-03-31T16:11:04.424Z,11.40
2023-03-31T16:13:33.710Z,11.50
2023-03-31T16:18:35.869Z,11.50
2023-03-31T16:21:08.648Z,11.50
2023-03-31T16:23:41.732Z,11.50
2023-03-31T16:26:11.686Z,11.50
2023-03-31T16:31:35.097Z,11.50
2023-03-31T16:34:05.709Z,11.40
2023-03-31T16:36:34.008Z,11.40
2023-03-31T16:41:34.611Z,11.40
2023-03-31T16:46:32.957Z,11.30
2023-03-31T16:49:01.356Z,11.40
2023-03-31T16:51:29.700Z,11.40
2023-03-31T17:01:25.614Z,11.40
2023-03-31T17:03:55.372Z,11.50
2023-03-31T17:19:05.925Z,11.50
2023-03-31T17:24:03.389Z,11.60
2023-03-31T17:36:29.615Z,11.70
2023-03-31T17:39:00.109Z,11.70
2023-03-31T17:41:30.306Z,11.80
2023-03-31T17:43:58.976Z,11.70
2023-03-31T17:48:58.388Z,11.80
2023-03-31T18:03:56.357Z,11.80
2023-03-31T18:06:24.997Z,11.80
2023-03-31T18:08:56.177Z,11.80
2023-03-31T18:11:24.589Z,11.90
2023-03-31T18:13:52.946Z,11.80
2023-03-31T18:16:21.878Z,11.80
2023-03-31T18:26:24.442Z,11.60
2023-03-31T18:28:52.896Z,11.60
2023-03-31T18:36:32.559Z,11.60
2023-03-31T18:41:33.733Z,11.50
2023-03-31T18:48:59.194Z,11.50
2023-03-31T18:56:25.343Z,11.50
2023-03-31T18:58:54.927Z,11.50
2023-03-31T19:16:19.215Z,11.50
2023-03-31T19:18:47.692Z,11.40
2023-03-31T19:21:15.937Z,11.40
2023-03-31T19:26:14.622Z,11.30
2023-03-31T19:33:42.219Z,11.10
2023-03-31T19:38:39.550Z,10.90
2023-03-31T19:41:08.759Z,10.90
2023-03-31T19:43:36.952Z,10.90
2023-03-31T19:46:05.243Z,10.90
2023-03-31T19:51:05.773Z,10.80
2023-03-31T19:53:37.645Z,10.80
2023-03-31T19:56:09.901Z,10.80
2023-03-31T19:58:39.366Z,10.70
2023-03-31T20:01:10.761Z,10.70
2023-03-31T20:06:11.704Z,10.60
2023-03-31T20:08:42.400Z,10.60
2023-03-31T20:11:14.330Z,10.50
2023-03-31T20:13:44.417Z,9.80
2023-03-31T20:16:15.560Z,10.20
2023-03-31T20:21:21.394Z,10.30
2023-03-31T20:23:49.930Z,10.20
2023-03-31T20:26:21.380Z,10.20
2023-03-31T20:28:51.751Z,10.20
2023-03-31T20:31:23.199Z,10.20
2023-03-31T20:33:53.875Z,10.20
2023-03-31T20:36:25.624Z,10.20
2023-03-31T20:38:54.824Z,10.20
2023-03-31T20:41:27.326Z,10.30
2023-03-31T20:43:56.707Z,10.30
2023-03-31T20:48:57.213Z,10.30
2023-03-31T20:51:29.750Z,10.40
2023-03-31T20:54:00.045Z,10.30
2023-03-31T20:56:30.950Z,10.40
2023-03-31T20:59:00.849Z,10.30
2023-03-31T21:01:32.833Z,10.30
2023-03-31T21:04:02.261Z,10.40
2023-03-31T21:06:37.364Z,10.40
2023-03-31T21:19:02.829Z,10.30
2023-03-31T21:21:33.678Z,10.30
2023-03-31T21:28:59.328Z,10.40
2023-03-31T21:36:26.816Z,10.40
2023-03-31T21:38:57.832Z,10.40
2023-03-31T21:41:28.705Z,10.40
2023-03-31T21:46:32.542Z,10.50
2023-03-31T21:49:01.293Z,10.50
2023-03-31T21:53:59.665Z,10.60
2023-03-31T21:56:32.137Z,10.70
2023-03-31T22:11:26.704Z,10.70
2023-03-31T22:16:24.265Z,10.70
2023-03-31T22:21:25.601Z,10.80
2023-03-31T22:23:55.080Z,10.80
2023-03-31T22:31:23.836Z,10.90
2023-03-31T22:36:21.797Z,10.90
2023-03-31T22:41:18.628Z,10.90
2023-03-31T22:43:48.178Z,10.90
2023-03-31T22:46:16.980Z,10.90
2023-03-31T22:48:48.882Z,10.90
2023-03-31T22:53:51.560Z,10.90
2023-03-31T22:56:21.003Z,10.90
2023-03-31T22:58:51.215Z,10.90
2023-03-31T23:01:21.891Z,10.90
2023-03-31T23:13:47.656Z,10.90
2023-03-31T23:16:21.180Z,10.90
2023-03-31T23:21:21.555Z,10.90
2023-03-31T23:23:53.660Z,10.90
2023-03-31T23:26:23.778Z,10.90
2023-03-31T23:31:25.631Z,10.90
2023-03-31T23:38:54.360Z,10.90
2023-03-31T23:41:23.963Z,10.90
2023-03-31T23:56:18.429Z,10.90
